sensor_id;sensor_type;location;lat;lon;timestamp;pressure;altitude;pressure_sealevel;temperature;humidity
49072;BME280;52656;52.610;10.236;2023-06-24T00:01:23;101907.75;;;15.21;86.06
49072;BME280;52656;52.610;10.236;2023-06-24T00:03:49;101915.75;;;15.21;86.61
49072;BME280;52656;52.610;10.236;2023-06-24T00:06:21;101911.47;;;15.17;86.85
49072;BME280;52656;52.610;10.236;2023-06-24T00:08:48;101918.53;;;15.18;86.96
49072;BME280;52656;52.610;10.236;2023-06-24T00:11:13;101907.03;;;15.16;87.05
49072;BME280;52656;52.610;10.236;2023-06-24T00:13:39;101914.31;;;15.13;86.93
49072;BME280;52656;52.610;10.236;2023-06-24T00:16:05;101916.13;;;15.12;86.87
49072;BME280;52656;52.610;10.236;2023-06-24T00:18:32;101915.31;;;15.10;87.02
49072;BME280;52656;52.610;10.236;2023-06-24T00:20:57;101914.63;;;15.05;86.42
49072;BME280;52656;52.610;10.236;2023-06-24T00:23:23;101909.34;;;15.04;87.06
49072;BME280;52656;52.610;10.236;2023-06-24T00:25:52;101917.97;;;15.10;86.29
49072;BME280;52656;52.610;10.236;2023-06-24T00:28:18;101920.13;;;15.01;87.02
49072;BME280;52656;52.610;10.236;2023-06-24T00:30:43;101927.50;;;14.94;86.07
49072;BME280;52656;52.610;10.236;2023-06-24T00:33:08;101932.22;;;14.87;86.52
49072;BME280;52656;52.610;10.236;2023-06-24T00:35:36;101936.88;;;14.82;86.96
49072;BME280;52656;52.610;10.236;2023-06-24T00:38:02;101936.09;;;14.79;86.39
49072;BME280;52656;52.610;10.236;2023-06-24T00:40:28;101932.75;;;14.73;86.53
49072;BME280;52656;52.610;10.236;2023-06-24T00:42:53;101935.16;;;14.80;85.53
49072;BME280;52656;52.610;10.236;2023-06-24T00:45:19;101936.97;;;14.79;85.60
49072;BME280;52656;52.610;10.236;2023-06-24T00:47:44;101931.72;;;14.78;85.37
49072;BME280;52656;52.610;10.236;2023-06-24T00:50:10;101931.97;;;14.70;84.65
49072;BME280;52656;52.610;10.236;2023-06-24T00:52:37;101931.03;;;14.71;nan
49072;BME280;52656;52.610;10.236;2023-06-24T00:55:07;101940.31;;;14.61;85.49
49072;BME280;52656;52.610;10.236;2023-06-24T00:57:33;101942.22;;;14.57;84.95
49072;BME280;52656;52.610;10.236;2023-06-24T00:59:59;101933.59;;;14.51;85.51
49072;BME280;52656;52.610;10.236;2023-06-24T01:02:24;101942.63;;;14.46;85.40
49072;BME280;52656;52.610;10.236;2023-06-24T01:04:53;101937.47;;;14.42;85.56
49072;BME280;52656;52.610;10.236;2023-06-24T01:07:18;101944.59;;;14.41;85.40
49072;BME280;52656;52.610;10.236;2023-06-24T01:09:44;101947.38;;;14.38;85.47
49072;BME280;52656;52.610;10.236;2023-06-24T01:12:09;101948.41;;;14.34;85.11
49072;BME280;52656;52.610;10.236;2023-06-24T01:14:35;101952.06;;;14.32;85.44
49072;BME280;52656;52.610;10.236;2023-06-24T01:17:11;101948.72;;;14.25;85.48
49072;BME280;52656;52.610;10.236;2023-06-24T01:22:10;101947.94;;;14.23;85.05
49072;BME280;52656;52.610;10.236;2023-06-24T01:24:48;101941.06;;;14.16;85.86
49072;BME280;52656;52.610;10.236;2023-06-24T01:27:41;101942.97;;;14.12;85.48
49072;BME280;52656;52.610;10.236;2023-06-24T01:32:59;101938.84;;;14.04;85.73
49072;BME280;52656;52.610;10.236;2023-06-24T01:35:31;101944.22;;;14.02;85.76
49072;BME280;52656;52.610;10.236;2023-06-24T01:37:59;101946.28;;;13.94;86.46
49072;BME280;52656;52.610;10.236;2023-06-24T01:40:28;101954.00;;;13.77;87.17
49072;BME280;52656;52.610;10.236;2023-06-24T01:43:01;101957.31;;;13.83;86.79
49072;BME280;52656;52.610;10.236;2023-06-24T01:45:32;101958.38;;;13.78;86.71
49072;BME280;52656;52.610;10.236;2023-06-24T01:48:03;101954.34;;;13.66;86.95
49072;BME280;52656;52.610;10.236;2023-06-24T01:50:33;101961.63;;;13.59;87.56
49072;BME280;52656;52.610;10.236;2023-06-24T01:53:01;101957.94;;;13.63;87.08
49072;BME280;52656;52.610;10.236;2023-06-24T01:55:29;101969.50;;;13.64;86.71
49072;BME280;52656;52.610;10.236;2023-06-24T01:57:56;101966.84;;;13.62;86.60
49072;BME280;52656;52.610;10.236;2023-06-24T02:00:23;101967.00;;;13.58;87.09
49072;BME280;52656;52.610;10.236;2023-06-24T02:02:50;101968.03;;;13.54;87.12
49072;BME280;52656;52.610;10.236;2023-06-24T02:05:17;101958.72;;;13.39;88.02
49072;BME280;52656;52.610;10.236;2023-06-24T02:07:44;101959.75;;;13.35;88.29
49072;BME280;52656;52.610;10.236;2023-06-24T02:10:10;101964.91;;;13.39;88.14
49072;BME280;52656;52.610;10.236;2023-06-24T02:12:37;101953.47;;;13.37;88.14
49072;BME280;52656;52.610;10.236;2023-06-24T02:15:04;101960.59;;;13.37;88.18
49072;BME280;52656;52.610;10.236;2023-06-24T02:17:32;101952.69;;;13.34;87.99
49072;BME280;52656;52.610;10.236;2023-06-24T02:19:57;101948.94;;;13.41;87.05
49072;BME280;52656;52.610;10.236;2023-06-24T02:22:23;101959.91;;;13.30;87.66
49072;BME280;52656;52.610;10.236;2023-06-24T02:24:49;101959.19;;;13.25;87.07
49072;BME280;52656;52.610;10.236;2023-06-24T02:27:16;101951.75;;;13.35;86.86
49072;BME280;52656;52.610;10.236;2023-06-24T02:29:42;101958.31;;;13.25;87.48
49072;BME280;52656;52.610;10.236;2023-06-24T02:32:08;101961.97;;;13.22;87.65
49072;BME280;52656;52.610;10.236;2023-06-24T02:34:34;101961.97;;;13.20;87.38
49072;BME280;52656;52.610;10.236;2023-06-24T02:36:59;101965.63;;;13.18;87.52
49072;BME280;52656;52.610;10.236;2023-06-24T02:39:24;101967.00;;;13.30;87.24
49072;BME280;52656;52.610;10.236;2023-06-24T02:41:50;101973.19;;;13.32;86.72
49072;BME280;52656;52.610;10.236;2023-06-24T02:44:16;101974.03;;;13.32;86.74
49072;BME280;52656;52.610;10.236;2023-06-24T02:46:45;101973.03;;;13.36;86.70
49072;BME280;52656;52.610;10.236;2023-06-24T02:49:13;101969.22;;;13.43;86.63
49072;BME280;52656;52.610;10.236;2023-06-24T02:51:41;101961.94;;;13.50;86.07
49072;BME280;52656;52.610;10.236;2023-06-24T02:54:06;101962.53;;;13.32;86.70
49072;BME280;52656;52.610;10.236;2023-06-24T02:56:32;101965.28;;;13.29;87.25
49072;BME280;52656;52.610;10.236;2023-06-24T02:58:57;101960.03;;;13.26;86.66
49072;BME280;52656;52.610;10.236;2023-06-24T03:01:23;101954.72;;;13.26;86.68
49072;BME280;52656;52.610;10.236;2023-06-24T03:03:52;101961.97;;;13.22;87.13
49072;BME280;52656;52.610;10.236;2023-06-24T03:06:18;101964.56;;;13.23;87.08
49072;BME280;52656;52.610;10.236;2023-06-24T03:08:44;101962.75;;;13.24;86.50
49072;BME280;52656;52.610;10.236;2023-06-24T03:11:13;101960.97;;;13.25;86.84
49072;BME280;52656;52.610;10.236;2023-06-24T03:13:39;101966.19;;;13.28;86.92
49072;BME280;52656;52.610;10.236;2023-06-24T03:16:04;101972.34;;;13.30;86.64
49072;BME280;52656;52.610;10.236;2023-06-24T03:18:29;101977.66;;;13.30;86.63
49072;BME280;52656;52.610;10.236;2023-06-24T03:20:55;101981.09;;;13.33;86.58
49072;BME280;52656;52.610;10.236;2023-06-24T03:23:20;101987.19;;;13.37;86.14
49072;BME280;52656;52.610;10.236;2023-06-24T03:25:45;101980.00;;;13.40;86.03
49072;BME280;52656;52.610;10.236;2023-06-24T03:28:10;101980.75;;;13.44;85.56
49072;BME280;52656;52.610;10.236;2023-06-24T03:30:36;101981.38;;;13.52;85.59
49072;BME280;52656;52.610;10.236;2023-06-24T03:33:01;101976.78;;;13.57;85.28
49072;BME280;52656;52.610;10.236;2023-06-24T03:35:27;101981.91;;;13.63;85.35
49072;BME280;52656;52.610;10.236;2023-06-24T03:37:52;101975.53;;;13.69;84.84
49072;BME280;52656;52.610;10.236;2023-06-24T03:40:17;101975.31;;;13.77;84.74
49072;BME280;52656;52.610;10.236;2023-06-24T03:42:43;101972.16;;;13.90;84.65
49072;BME280;52656;52.610;10.236;2023-06-24T03:45:08;101980.00;;;13.95;84.52
49072;BME280;52656;52.610;10.236;2023-06-24T03:47:33;101983.25;;;14.03;84.41
49072;BME280;52656;52.610;10.236;2023-06-24T03:49:59;101982.84;;;14.15;84.06
49072;BME280;52656;52.610;10.236;2023-06-24T03:52:25;101986.97;;;14.24;83.89
49072;BME280;52656;52.610;10.236;2023-06-24T03:54:50;101989.63;;;14.24;83.41
49072;BME280;52656;52.610;10.236;2023-06-24T03:57:16;101990.09;;;14.60;82.85
49072;BME280;52656;52.610;10.236;2023-06-24T03:59:41;101986.81;;;14.29;82.84
49072;BME280;52656;52.610;10.236;2023-06-24T04:02:06;101989.81;;;14.44;83.25
49072;BME280;52656;52.610;10.236;2023-06-24T04:04:35;101984.78;;;14.60;83.17
49072;BME280;52656;52.610;10.236;2023-06-24T04:07:00;101985.91;;;14.78;83.10
49072;BME280;52656;52.610;10.236;2023-06-24T04:09:26;101982.66;;;14.93;81.80
49072;BME280;52656;52.610;10.236;2023-06-24T04:11:51;101978.19;;;15.17;81.92
49072;BME280;52656;52.610;10.236;2023-06-24T04:14:16;101973.66;;;15.41;80.42
49072;BME280;52656;52.610;10.236;2023-06-24T04:16:41;101982.63;;;16.05;80.03
49072;BME280;52656;52.610;10.236;2023-06-24T04:19:07;101975.47;;;17.95;72.78
49072;BME280;52656;52.610;10.236;2023-06-24T04:21:32;101976.19;;;19.63;67.47
49072;BME280;52656;52.610;10.236;2023-06-24T04:23:57;101972.28;;;20.86;58.91
49072;BME280;52656;52.610;10.236;2023-06-24T04:26:23;101970.78;;;22.17;57.59
49072;BME280;52656;52.610;10.236;2023-06-24T04:28:48;101971.66;;;22.94;49.78
49072;BME280;52656;52.610;10.236;2023-06-24T04:31:13;101975.31;;;24.02;51.73
49072;BME280;52656;52.610;10.236;2023-06-24T04:33:39;101969.19;;;24.11;46.30
49072;BME280;52656;52.610;10.236;2023-06-24T04:36:04;101976.78;;;25.20;48.76
49072;BME280;52656;52.610;10.236;2023-06-24T04:38:29;101974.44;;;24.48;45.01
49072;BME280;52656;52.610;10.236;2023-06-24T04:40:54;101982.66;;;25.79;47.22
49072;BME280;52656;52.610;10.236;2023-06-24T04:43:20;101984.19;;;25.93;46.19
49072;BME280;52656;52.610;10.236;2023-06-24T04:45:45;101982.91;;;26.81;44.48
49072;BME280;52656;52.610;10.236;2023-06-24T04:48:10;101990.00;;;27.53;43.05
49072;BME280;52656;52.610;10.236;2023-06-24T04:50:36;101981.72;;;28.03;41.94
49072;BME280;52656;52.610;10.236;2023-06-24T04:53:01;101981.66;;;28.89;40.53
49072;BME280;52656;52.610;10.236;2023-06-24T04:55:29;101983.34;;;29.45;40.07
49072;BME280;52656;52.610;10.236;2023-06-24T04:57:57;101987.66;;;30.27;38.58
49072;BME280;52656;52.610;10.236;2023-06-24T05:00:22;101987.94;;;30.68;38.09
49072;BME280;52656;52.610;10.236;2023-06-24T05:02:49;101982.03;;;31.31;37.07
49072;BME280;52656;52.610;10.236;2023-06-24T05:05:15;101976.75;;;31.38;36.21
49072;BME280;52656;52.610;10.236;2023-06-24T05:07:40;101968.47;;;31.96;35.54
49072;BME280;52656;52.610;10.236;2023-06-24T05:10:05;101965.19;;;31.85;35.43
49072;BME280;52656;52.610;10.236;2023-06-24T05:12:31;101963.44;;;32.24;35.12
49072;BME280;52656;52.610;10.236;2023-06-24T05:14:56;101965.13;;;32.33;35.14
49072;BME280;52656;52.610;10.236;2023-06-24T05:17:22;101969.31;;;32.21;35.12
49072;BME280;52656;52.610;10.236;2023-06-24T05:19:47;101971.97;;;32.46;34.21
49072;BME280;52656;52.610;10.236;2023-06-24T05:22:12;101973.13;;;33.38;33.48
49072;BME280;52656;52.610;10.236;2023-06-24T05:24:37;101976.84;;;33.99;32.06
49072;BME280;52656;52.610;10.236;2023-06-24T05:27:07;101974.38;;;34.04;32.75
49072;BME280;52656;52.610;10.236;2023-06-24T05:29:35;101969.47;;;34.52;31.57
49072;BME280;52656;52.610;10.236;2023-06-24T05:32:00;101974.63;;;34.32;32.56
49072;BME280;52656;52.610;10.236;2023-06-24T05:34:29;101981.44;;;35.25;30.88
49072;BME280;52656;52.610;10.236;2023-06-24T05:36:54;101982.25;;;35.41;30.51
49072;BME280;52656;52.610;10.236;2023-06-24T05:39:20;101982.69;;;36.08;30.53
49072;BME280;52656;52.610;10.236;2023-06-24T05:41:45;101988.22;;;36.08;29.85
49072;BME280;52656;52.610;10.236;2023-06-24T05:44:10;101988.31;;;35.36;30.19
49072;BME280;52656;52.610;10.236;2023-06-24T05:46:36;101996.75;;;35.49;29.91
49072;BME280;52656;52.610;10.236;2023-06-24T05:49:02;101985.78;;;34.98;29.92
49072;BME280;52656;52.610;10.236;2023-06-24T05:51:27;102001.25;;;35.93;29.72
49072;BME280;52656;52.610;10.236;2023-06-24T05:53:52;102000.34;;;36.14;29.94
49072;BME280;52656;52.610;10.236;2023-06-24T05:56:19;101999.19;;;35.59;31.03
49072;BME280;52656;52.610;10.236;2023-06-24T05:58:44;102003.41;;;34.07;32.45
49072;BME280;52656;52.610;10.236;2023-06-24T06:01:10;101993.84;;;32.78;33.50
49072;BME280;52656;52.610;10.236;2023-06-24T06:03:35;102006.97;;;31.87;34.91
49072;BME280;52656;52.610;10.236;2023-06-24T06:06:01;101992.25;;;31.79;35.59
49072;BME280;52656;52.610;10.236;2023-06-24T06:08:26;101991.41;;;31.20;35.49
49072;BME280;52656;52.610;10.236;2023-06-24T06:10:51;101980.94;;;30.39;37.56
49072;BME280;52656;52.610;10.236;2023-06-24T06:13:17;101988.56;;;30.10;37.33
49072;BME280;52656;52.610;10.236;2023-06-24T06:15:42;101985.16;;;29.26;37.79
49072;BME280;52656;52.610;10.236;2023-06-24T06:18:07;101986.88;;;28.63;40.60
49072;BME280;52656;52.610;10.236;2023-06-24T06:20:32;101984.53;;;28.40;40.78
49072;BME280;52656;52.610;10.236;2023-06-24T06:22:58;101978.34;;;29.13;40.10
49072;BME280;52656;52.610;10.236;2023-06-24T06:25:23;101978.31;;;28.57;40.74
49072;BME280;52656;52.610;10.236;2023-06-24T06:27:49;101981.19;;;28.46;39.78
49072;BME280;52656;52.610;10.236;2023-06-24T06:30:14;101976.53;;;29.31;39.04
49072;BME280;52656;52.610;10.236;2023-06-24T06:32:40;101987.97;;;31.77;35.48
49072;BME280;52656;52.610;10.236;2023-06-24T06:35:06;101986.41;;;31.74;35.32
49072;BME280;52656;52.610;10.236;2023-06-24T06:37:32;101990.88;;;31.08;36.79
49072;BME280;52656;52.610;10.236;2023-06-24T06:39:57;101987.25;;;32.32;34.76
49072;BME280;52656;52.610;10.236;2023-06-24T06:42:22;101994.00;;;35.13;30.24
49072;BME280;52656;52.610;10.236;2023-06-24T06:44:48;101985.97;;;36.81;28.23
49072;BME280;52656;52.610;10.236;2023-06-24T06:47:13;101987.84;;;38.95;26.12
49072;BME280;52656;52.610;10.236;2023-06-24T06:49:38;101982.44;;;36.60;30.28
49072;BME280;52656;52.610;10.236;2023-06-24T06:52:05;101979.47;;;36.61;28.28
49072;BME280;52656;52.610;10.236;2023-06-24T06:54:30;101982.53;;;33.98;31.00
49072;BME280;52656;52.610;10.236;2023-06-24T06:57:03;101982.09;;;34.24;29.61
49072;BME280;52656;52.610;10.236;2023-06-24T06:59:31;101984.59;;;37.93;26.83
49072;BME280;52656;52.610;10.236;2023-06-24T07:01:57;101989.19;;;36.92;27.74
49072;BME280;52656;52.610;10.236;2023-06-24T07:04:22;101981.88;;;35.44;30.45
49072;BME280;52656;52.610;10.236;2023-06-24T07:06:47;101986.00;;;35.18;30.67
49072;BME280;52656;52.610;10.236;2023-06-24T07:09:13;101985.72;;;36.14;27.98
49072;BME280;52656;52.610;10.236;2023-06-24T07:11:40;101981.56;;;33.68;32.10
49072;BME280;52656;52.610;10.236;2023-06-24T07:14:05;101982.41;;;36.25;26.82
49072;BME280;52656;52.610;10.236;2023-06-24T07:16:30;101979.81;;;38.73;25.05
49072;BME280;52656;52.610;10.236;2023-06-24T07:18:56;101992.56;;;39.64;23.71
49072;BME280;52656;52.610;10.236;2023-06-24T07:21:21;101995.16;;;35.98;28.05
49072;BME280;52656;52.610;10.236;2023-06-24T07:23:47;101990.72;;;38.42;25.58
49072;BME280;52656;52.610;10.236;2023-06-24T07:26:12;102007.41;;;39.06;25.67
49072;BME280;52656;52.610;10.236;2023-06-24T07:28:38;102002.47;;;39.85;23.99
49072;BME280;52656;52.610;10.236;2023-06-24T07:31:03;102000.47;;;40.61;21.79
49072;BME280;52656;52.610;10.236;2023-06-24T07:33:28;101999.47;;;41.70;22.67
49072;BME280;52656;52.610;10.236;2023-06-24T07:35:55;101995.06;;;42.40;20.82
49072;BME280;52656;52.610;10.236;2023-06-24T07:38:21;102001.00;;;42.67;20.71
49072;BME280;52656;52.610;10.236;2023-06-24T07:40:46;102002.91;;;43.18;19.64
49072;BME280;52656;52.610;10.236;2023-06-24T07:43:11;102000.19;;;43.81;19.43
49072;BME280;52656;52.610;10.236;2023-06-24T07:45:37;101994.31;;;46.07;18.07
49072;BME280;52656;52.610;10.236;2023-06-24T07:48:02;101993.28;;;46.23;17.62
49072;BME280;52656;52.610;10.236;2023-06-24T07:50:27;101991.09;;;46.30;17.98
49072;BME280;52656;52.610;10.236;2023-06-24T07:52:53;102000.50;;;44.01;18.75
49072;BME280;52656;52.610;10.236;2023-06-24T07:55:18;101998.22;;;42.32;21.50
49072;BME280;52656;52.610;10.236;2023-06-24T07:57:46;101989.84;;;40.76;20.74
49072;BME280;52656;52.610;10.236;2023-06-24T08:00:12;101983.91;;;39.54;24.45
49072;BME280;52656;52.610;10.236;2023-06-24T08:02:38;101988.19;;;43.23;20.65
49072;BME280;52656;52.610;10.236;2023-06-24T08:05:03;101971.31;;;44.69;18.79
49072;BME280;52656;52.610;10.236;2023-06-24T08:07:29;101973.09;;;45.24;17.83
49072;BME280;52656;52.610;10.236;2023-06-24T08:09:55;101968.78;;;45.39;17.62
49072;BME280;52656;52.610;10.236;2023-06-24T08:12:20;101967.41;;;43.76;18.24
49072;BME280;52656;52.610;10.236;2023-06-24T08:14:45;101965.84;;;41.42;19.29
49072;BME280;52656;52.610;10.236;2023-06-24T08:17:11;101962.88;;;40.95;20.60
49072;BME280;52656;52.610;10.236;2023-06-24T08:19:36;101974.41;;;41.59;20.08
49072;BME280;52656;52.610;10.236;2023-06-24T08:22:01;101975.28;;;41.71;20.30
49072;BME280;52656;52.610;10.236;2023-06-24T08:24:27;101971.59;;;42.88;19.60
49072;BME280;52656;52.610;10.236;2023-06-24T08:26:53;101989.38;;;43.55;18.87
49072;BME280;52656;52.610;10.236;2023-06-24T08:29:18;101987.56;;;43.95;17.37
49072;BME280;52656;52.610;10.236;2023-06-24T08:31:43;101977.44;;;43.15;18.75
49072;BME280;52656;52.610;10.236;2023-06-24T08:34:09;101985.97;;;43.82;18.41
49072;BME280;52656;52.610;10.236;2023-06-24T08:36:34;101981.66;;;44.91;17.22
49072;BME280;52656;52.610;10.236;2023-06-24T08:39:01;101986.50;;;45.49;17.24
49072;BME280;52656;52.610;10.236;2023-06-24T08:41:26;101983.63;;;44.68;17.68
49072;BME280;52656;52.610;10.236;2023-06-24T08:43:53;101972.16;;;44.26;16.51
49072;BME280;52656;52.610;10.236;2023-06-24T08:46:19;101981.13;;;44.11;18.00
49072;BME280;52656;52.610;10.236;2023-06-24T08:48:45;101973.59;;;45.75;17.41
49072;BME280;52656;52.610;10.236;2023-06-24T08:51:13;101971.84;;;47.27;15.93
49072;BME280;52656;52.610;10.236;2023-06-24T08:53:42;101975.47;;;45.38;15.38
49072;BME280;52656;52.610;10.236;2023-06-24T08:56:08;101977.75;;;45.41;17.30
49072;BME280;52656;52.610;10.236;2023-06-24T08:58:33;101969.06;;;44.66;17.40
49072;BME280;52656;52.610;10.236;2023-06-24T09:01:00;101974.41;;;44.51;17.22
49072;BME280;52656;52.610;10.236;2023-06-24T09:03:25;101981.75;;;44.35;17.58
49072;BME280;52656;52.610;10.236;2023-06-24T09:05:51;101973.28;;;46.04;16.77
49072;BME280;52656;52.610;10.236;2023-06-24T09:08:16;101971.13;;;46.74;15.60
49072;BME280;52656;52.610;10.236;2023-06-24T09:10:41;101969.16;;;44.93;16.48
49072;BME280;52656;52.610;10.236;2023-06-24T09:13:07;101969.38;;;43.92;17.22
49072;BME280;52656;52.610;10.236;2023-06-24T09:15:34;101971.50;;;44.41;17.44
49072;BME280;52656;52.610;10.236;2023-06-24T09:17:59;101965.56;;;45.52;16.34
49072;BME280;52656;52.610;10.236;2023-06-24T09:20:29;101963.75;;;45.41;16.47
49072;BME280;52656;52.610;10.236;2023-06-24T09:23:02;101959.03;;;45.73;15.85
49072;BME280;52656;52.610;10.236;2023-06-24T09:25:29;101955.59;;;45.34;16.85
49072;BME280;52656;52.610;10.236;2023-06-24T09:27:54;101954.44;;;45.30;17.00
49072;BME280;52656;52.610;10.236;2023-06-24T09:30:24;101947.25;;;46.09;16.47
49072;BME280;52656;52.610;10.236;2023-06-24T09:32:53;101950.63;;;46.73;16.28
49072;BME280;52656;52.610;10.236;2023-06-24T09:35:25;101941.66;;;45.39;15.28
49072;BME280;52656;52.610;10.236;2023-06-24T09:37:55;101935.72;;;44.60;16.55
49072;BME280;52656;52.610;10.236;2023-06-24T09:40:22;101936.88;;;44.86;17.47
49072;BME280;52656;52.610;10.236;2023-06-24T09:42:55;101934.19;;;43.41;17.40
49072;BME280;52656;52.610;10.236;2023-06-24T09:45:23;101932.56;;;45.59;17.36
49072;BME280;52656;52.610;10.236;2023-06-24T09:47:49;101936.53;;;44.82;17.14
49072;BME280;52656;52.610;10.236;2023-06-24T09:50:14;101926.38;;;43.76;17.93
49072;BME280;52656;52.610;10.236;2023-06-24T09:52:40;101930.09;;;43.99;17.38
49072;BME280;52656;52.610;10.236;2023-06-24T09:55:06;101931.16;;;44.53;17.70
49072;BME280;52656;52.610;10.236;2023-06-24T09:57:33;101926.44;;;44.15;18.66
49072;BME280;52656;52.610;10.236;2023-06-24T10:00:00;101923.97;;;44.58;18.00
49072;BME280;52656;52.610;10.236;2023-06-24T10:02:29;101926.34;;;44.27;17.99
49072;BME280;52656;52.610;10.236;2023-06-24T10:04:56;101927.19;;;44.93;18.20
49072;BME280;52656;52.610;10.236;2023-06-24T10:07:21;101917.56;;;42.48;18.52
49072;BME280;52656;52.610;10.236;2023-06-24T10:09:47;101912.97;;;42.19;18.58
49072;BME280;52656;52.610;10.236;2023-06-24T10:12:13;101911.38;;;41.64;20.01
49072;BME280;52656;52.610;10.236;2023-06-24T10:14:39;101915.19;;;39.24;20.85
49072;BME280;52656;52.610;10.236;2023-06-24T10:17:04;101913.13;;;40.93;20.93
49072;BME280;52656;52.610;10.236;2023-06-24T10:19:37;101911.19;;;42.24;18.82
49072;BME280;52656;52.610;10.236;2023-06-24T10:22:07;101903.34;;;40.17;20.86
49072;BME280;52656;52.610;10.236;2023-06-24T10:24:35;101919.19;;;39.35;21.86
49072;BME280;52656;52.610;10.236;2023-06-24T10:29:34;101906.34;;;41.01;20.17
49072;BME280;52656;52.610;10.236;2023-06-24T10:32:02;101900.16;;;39.45;20.41
49072;BME280;52656;52.610;10.236;2023-06-24T10:34:31;101896.41;;;39.83;21.59
49072;BME280;52656;52.610;10.236;2023-06-24T10:37:20;101899.31;;;36.35;25.04
49072;BME280;52656;52.610;10.236;2023-06-24T10:44:53;101893.84;;;40.62;21.71
49072;BME280;52656;52.610;10.236;2023-06-24T10:47:19;101883.56;;;38.62;23.51
49072;BME280;52656;52.610;10.236;2023-06-24T10:49:48;101884.97;;;38.78;22.83
49072;BME280;52656;52.610;10.236;2023-06-24T10:52:13;101877.50;;;39.98;22.07
49072;BME280;52656;52.610;10.236;2023-06-24T10:54:39;101870.31;;;39.91;23.04
49072;BME280;52656;52.610;10.236;2023-06-24T10:57:06;101874.06;;;38.38;23.32
49072;BME280;52656;52.610;10.236;2023-06-24T10:59:35;101864.81;;;36.65;25.36
49072;BME280;52656;52.610;10.236;2023-06-24T11:02:04;101867.78;;;35.17;26.88
49072;BME280;52656;52.610;10.236;2023-06-24T11:04:29;101856.44;;;34.39;28.08
49072;BME280;52656;52.610;10.236;2023-06-24T11:06:58;101856.56;;;34.82;28.42
49072;BME280;52656;52.610;10.236;2023-06-24T11:09:24;101852.09;;;34.81;27.66
49072;BME280;52656;52.610;10.236;2023-06-24T11:11:49;101854.84;;;34.30;27.62
49072;BME280;52656;52.610;10.236;2023-06-24T11:14:15;101850.19;;;34.30;28.45
49072;BME280;52656;52.610;10.236;2023-06-24T11:16:41;101853.78;;;34.31;27.88
49072;BME280;52656;52.610;10.236;2023-06-24T11:19:06;101845.72;;;34.15;28.28
49072;BME280;52656;52.610;10.236;2023-06-24T11:21:31;101845.47;;;33.57;28.40
49072;BME280;52656;52.610;10.236;2023-06-24T11:24:01;101851.47;;;31.89;29.78
49072;BME280;52656;52.610;10.236;2023-06-24T11:26:27;101847.75;;;32.76;29.47
49072;BME280;52656;52.610;10.236;2023-06-24T11:28:52;101847.59;;;33.01;28.51
49072;BME280;52656;52.610;10.236;2023-06-24T11:31:18;101845.78;;;32.62;29.74
49072;BME280;52656;52.610;10.236;2023-06-24T11:33:49;101855.28;;;32.43;30.56
49072;BME280;52656;52.610;10.236;2023-06-24T11:36:17;101844.38;;;32.66;31.30
49072;BME280;52656;52.610;10.236;2023-06-24T11:38:42;101845.94;;;32.61;30.23
49072;BME280;52656;52.610;10.236;2023-06-24T11:41:08;101836.13;;;32.97;29.40
49072;BME280;52656;52.610;10.236;2023-06-24T11:43:34;101838.00;;;31.46;31.05
49072;BME280;52656;52.610;10.236;2023-06-24T11:45:59;101831.97;;;30.94;31.85
49072;BME280;52656;52.610;10.236;2023-06-24T11:48:28;101840.19;;;31.18;32.47
49072;BME280;52656;52.610;10.236;2023-06-24T11:50:54;101832.97;;;31.99;31.96
49072;BME280;52656;52.610;10.236;2023-06-24T11:53:42;101832.44;;;32.03;31.22
49072;BME280;52656;52.610;10.236;2023-06-24T11:56:08;101830.13;;;32.23;31.79
49072;BME280;52656;52.610;10.236;2023-06-24T11:58:34;101835.84;;;32.05;31.01
49072;BME280;52656;52.610;10.236;2023-06-24T12:01:01;101830.84;;;32.25;31.12
49072;BME280;52656;52.610;10.236;2023-06-24T12:03:28;101824.59;;;32.40;32.16
49072;BME280;52656;52.610;10.236;2023-06-24T12:05:54;101830.09;;;32.48;31.04
49072;BME280;52656;52.610;10.236;2023-06-24T12:08:19;101828.75;;;32.27;29.61
49072;BME280;52656;52.610;10.236;2023-06-24T12:10:45;101828.22;;;32.32;30.53
49072;BME280;52656;52.610;10.236;2023-06-24T12:13:11;101823.50;;;32.18;31.38
49072;BME280;52656;52.610;10.236;2023-06-24T12:15:36;101821.66;;;31.94;30.97
49072;BME280;52656;52.610;10.236;2023-06-24T12:18:02;101832.19;;;31.49;31.30
49072;BME280;52656;52.610;10.236;2023-06-24T12:20:29;101822.94;;;31.58;30.77
49072;BME280;52656;52.610;10.236;2023-06-24T12:22:55;101819.19;;;31.43;30.87
49072;BME280;52656;52.610;10.236;2023-06-24T12:25:21;101816.75;;;31.32;30.61
49072;BME280;52656;52.610;10.236;2023-06-24T12:27:46;101819.50;;;31.32;31.92
49072;BME280;52656;52.610;10.236;2023-06-24T12:30:12;101810.91;;;31.11;32.16
49072;BME280;52656;52.610;10.236;2023-06-24T12:32:39;101815.75;;;31.25;31.31
49072;BME280;52656;52.610;10.236;2023-06-24T12:35:05;101811.44;;;31.06;31.65
49072;BME280;52656;52.610;10.236;2023-06-24T12:37:31;101809.56;;;31.06;32.02
49072;BME280;52656;52.610;10.236;2023-06-24T12:39:57;101813.59;;;30.78;32.53
49072;BME280;52656;52.610;10.236;2023-06-24T12:42:23;101802.72;;;31.19;32.22
49072;BME280;52656;52.610;10.236;2023-06-24T12:44:48;101810.44;;;31.31;29.89
49072;BME280;52656;52.610;10.236;2023-06-24T12:47:13;101798.94;;;31.20;31.52
49072;BME280;52656;52.610;10.236;2023-06-24T12:49:38;101804.88;;;30.66;32.15